Time;durP1;ratioP1;P1;durP2;ratioP2;P2;SDS_P1;SDS_P2;PMS_P1;PMS_P2;Temp;Humidity;BMP_temperature;BMP_pressure;BME280_temperature;BME280_humidity;BME280_pressure;Samples;Min_cycle;Max_cycle;Signal;HPM_P1;HPM_P2
2021/12/13 00:00:06;;;;;;;;;;;;;;;;;;5035110;28;19947;-84
2021/12/13 00:02:53;;;;;;;;;;;;;;;;;;5032137;28;19984;-84
2021/12/13 00:05:53;;;;;;;;;;;;;;;;;;5016447;28;19929;-85
2021/12/13 00:08:20;;;;;;;;;;;;;;;;;;4967991;28;20394;-84
2021/12/13 00:10:50;;;;;;;;;;;;;;;;;;5003155;28;19953;-84
2021/12/13 00:13:20;;;;;;;;;;;;;;;;;;5010876;28;20473;-84
2021/12/13 00:15:48;;;;;;;;;;;;;;;;;;5032992;28;19929;-83
2021/12/13 00:18:21;;;;;;;;;;;;;;;;;;5031189;28;19917;-84
2021/12/13 00:20:49;;;;;;;;;;;;;;;;;;5033606;28;19948;-85
2021/12/13 00:23:16;;;;;;;;;;;;;;;;;;5036397;28;19921;-85
2021/12/13 00:25:43;;;;;;;;;;;;;;;;;;5035519;28;20445;-85
2021/12/13 00:28:13;;;;;;;;;;;;;;;;;;5034428;28;20018;-84
2021/12/13 00:30:41;;;;;;;;;;;;;;;;;;5029371;28;19932;-85
2021/12/13 00:33:25;;;;;;;;;;;;;;;;;;5034149;28;20420;-85
2021/12/13 00:35:53;;;;;;;;;;;;;;;;;;5026667;28;20357;-85
2021/12/13 00:38:22;;;;;;;;;;;;;;;;;;5033660;28;19921;-84
2021/12/13 00:40:52;;;;;;;;;;;;;;;;;;5034340;28;19932;-84
2021/12/13 00:43:20;;;;;;;;;;;;;;;;;;5005849;28;19951;-85
2021/12/13 00:46:05;;;;;;;;;;;;;;;;;;5034624;28;19921;-85
2021/12/13 00:48:31;;;;;;;;;;;;;;;;;;5034294;28;19928;-85
2021/12/13 00:51:05;;;;;;;;;;;;;;;;;;5032555;28;19921;-84
2021/12/13 00:53:32;;;;;;;;;;;;;;;;;;5032529;28;19933;-84
2021/12/13 00:55:58;;;;;;;;;;;;;;;;;;5032639;28;20055;-84
2021/12/13 00:58:23;;;;;;;;;;;;;;;;;;5033569;28;20426;-84
2021/12/13 01:00:53;;;;;;;;;;;;;;;;;;5034173;28;19932;-84
2021/12/13 01:03:18;;;;;;;;;;;;;;;;;;5030425;28;20004;-85
2021/12/13 01:05:56;;;;;;;;;;;;;;;;;;5034241;28;19964;-86
2021/12/13 01:08:40;;;;;;;;;;;;;;;;;;5034098;28;19921;-86
2021/12/13 01:11:17;;;;;;;;;;;;;;;;;;5017457;28;20290;-86
2021/12/13 01:13:45;;;;;;;;;;;;;;;;;;5033733;28;19921;-83
2021/12/13 01:19:24;;;;;;;;;;;;;;;;;;5031581;28;19944;-84
2021/12/13 01:21:56;;;;;;;;;;;;;;;;;;5029613;28;20019;-84
2021/12/13 01:24:53;;;;;;;;;;;;;;;;;;5032557;28;20232;-85
2021/12/13 01:27:15;;;;;;;;;;;;;;;;;;5027880;28;19925;-85
2021/12/13 01:29:40;;;;;;;;;;;;;;;;;;5032851;28;20338;-83
2021/12/13 01:32:07;;;;;;;;;;;;;;;;;;5026446;28;19984;-82
2021/12/13 01:34:33;;;;;;;;;;;;;;;;;;5033502;28;20255;-83
2021/12/13 01:37:10;;;;;;;;;;;;;;;;;;5032970;28;19920;-84
2021/12/13 01:39:38;;;;;;;;;;;;;;;;;;5028769;28;19921;-84
2021/12/13 01:42:07;;;;;;;;;;;;;;;;;;5028087;28;19975;-84
2021/12/13 01:44:37;;;;;;;;;;;;;;;;;;5029296;28;19932;-84
2021/12/13 01:47:10;;;;;;;;;;;;;;;;;;5033807;28;20364;-84
2021/12/13 01:49:37;;;;;;;;;;;;;;;;;;5031869;28;20216;-83
2021/12/13 01:52:07;;;;;;;;;;;;;;;;;;5031035;28;19921;-84
2021/12/13 01:54:34;;;;;;;;;;;;;;;;;;5036022;28;19921;-84
2021/12/13 01:57:22;;;;;;;;;;;;;;;;;;5032443;28;20270;-84
2021/12/13 01:59:55;;;;;;;;;;;;;;;;;;5032072;28;19928;-84
2021/12/13 02:02:40;;;;;;;;;;;;;;;;;;5028619;28;20318;-83
2021/12/13 02:05:15;;;;;;;;;;;;;;;;;;5029829;28;19921;-83
2021/12/13 02:07:44;;;;;;;;;;;;;;;;;;5031599;28;19941;-84
2021/12/13 02:10:33;;;;;;;;;;;;;;;;;;5015342;28;19979;-84
2021/12/13 02:13:01;;;;;;;;;;;;;;;;;;5025446;28;19921;-84
2021/12/13 02:18:18;;;;;;;;;;;;;;;;;;5032347;28;20305;-83
2021/12/13 02:20:47;;;;;;;;;;;;;;;;;;5028166;28;19929;-84
2021/12/13 02:23:13;;;;;;;;;;;;;;;;;;5033779;28;20282;-84
2021/12/13 02:25:40;;;;;;;;;;;;;;;;;;5029531;28;20422;-84
2021/12/13 02:28:11;;;;;;;;;;;;;;;;;;5031194;28;19975;-83
2021/12/13 02:30:44;;;;;;;;;;;;;;;;;;5028724;28;19921;-84
2021/12/13 02:33:11;;;;;;;;;;;;;;;;;;5036106;28;19921;-83
2021/12/13 02:35:38;;;;;;;;;;;;;;;;;;5031587;28;19988;-83
2021/12/13 02:38:05;;;;;;;;;;;;;;;;;;5032323;28;20334;-83
2021/12/13 02:40:32;;;;;;;;;;;;;;;;;;5030300;28;19960;-85
2021/12/13 02:42:58;;;;;;;;;;;;;;;;;;5031276;28;20362;-85
2021/12/13 02:45:26;;;;;;;;;;;;;;;;;;5032002;28;19932;-85
2021/12/13 02:48:10;;;;;;;;;;;;;;;;;;5031538;28;20257;-85
2021/12/13 02:50:41;;;;;;;;;;;;;;;;;;5032682;28;20266;-84
2021/12/13 02:53:06;;;;;;;;;;;;;;;;;;5030350;28;19936;-86
2021/12/13 02:55:32;;;;;;;;;;;;;;;;;;5021766;28;20441;-86
2021/12/13 02:57:59;;;;;;;;;;;;;;;;;;5027319;28;19924;-85
2021/12/13 03:00:27;;;;;;;;;;;;;;;;;;5019545;28;19925;-84
2021/12/13 03:02:54;;;;;;;;;;;;;;;;;;5028968;28;20000;-84
2021/12/13 03:05:22;;;;;;;;;;;;;;;;;;5028882;28;19925;-84
2021/12/13 03:07:49;;;;;;;;;;;;;;;;;;5024234;28;19929;-84
2021/12/13 03:10:16;;;;;;;;;;;;;;;;;;5035912;28;19921;-83
2021/12/13 03:12:42;;;;;;;;;;;;;;;;;;5034521;28;19921;-84
2021/12/13 03:15:11;;;;;;;;;;;;;;;;;;5035415;28;19997;-83
2021/12/13 03:17:41;;;;;;;;;;;;;;;;;;5043333;28;20134;-84
2021/12/13 03:20:15;;;;;;;;;;;;;;;;;;5040684;28;19972;-83
2021/12/13 03:22:59;;;;;;;;;;;;;;;;;;5033630;28;19925;-83
2021/12/13 03:25:25;;;;;;;;;;;;;;;;;;5032931;28;19927;-83
2021/12/13 03:28:22;;;;;;;;;;;;;;;;;;5034511;28;20015;-83
2021/12/13 03:30:50;;;;;;;;;;;;;;;;;;4990607;28;19967;-83
2021/12/13 03:33:16;;;;;;;;;;;;;;;;;;5014054;28;19932;-83
2021/12/13 03:35:44;;;;;;;;;;;;;;;;;;5024602;28;20016;-83
2021/12/13 03:38:11;;;;;;;;;;;;;;;;;;5027130;28;19921;-83
2021/12/13 03:40:36;;;;;;;;;;;;;;;;;;5034279;28;19933;-84
2021/12/13 03:43:04;;;;;;;;;;;;;;;;;;5018062;28;20392;-84
2021/12/13 03:45:40;;;;;;;;;;;;;;;;;;5025150;28;20251;-84
2021/12/13 03:48:06;;;;;;;;;;;;;;;;;;5024806;28;19921;-85
2021/12/13 03:50:35;;;;;;;;;;;;;;;;;;5031996;28;19929;-85
2021/12/13 03:53:01;;;;;;;;;;;;;;;;;;5034456;28;19979;-85
2021/12/13 03:55:31;;;;;;;;;;;;;;;;;;5032316;28;19925;-85
2021/12/13 03:58:02;;;;;;;;;;;;;;;;;;5035046;28;19921;-85
2021/12/13 04:00:29;;;;;;;;;;;;;;;;;;5034306;28;20597;-85
2021/12/13 04:02:56;;;;;;;;;;;;;;;;;;5036533;28;20375;-83
2021/12/13 04:05:22;;;;;;;;;;;;;;;;;;5033088;28;19940;-84
2021/12/13 04:07:49;;;;;;;;;;;;;;;;;;5030065;28;20346;-83
2021/12/13 04:10:14;;;;;;;;;;;;;;;;;;5034640;28;19921;-83
2021/12/13 04:12:46;;;;;;;;;;;;;;;;;;5034973;28;20021;-83
2021/12/13 04:15:17;;;;;;;;;;;;;;;;;;5035552;28;19920;-83
2021/12/13 04:17:58;;;;;;;;;;;;;;;;;;5034080;28;19921;-84
2021/12/13 04:20:25;;;;;;;;;;;;;;;;;;5031040;28;19925;-84
2021/12/13 04:22:53;;;;;;;;;;;;;;;;;;5030981;28;20074;-84
2021/12/13 04:25:22;;;;;;;;;;;;;;;;;;5025087;28;19921;-83
2021/12/13 04:27:58;;;;;;;;;;;;;;;;;;5034567;28;19928;-82
2021/12/13 04:30:28;;;;;;;;;;;;;;;;;;5031710;28;19932;-83
2021/12/13 04:32:55;;;;;;;;;;;;;;;;;;5029485;28;19921;-82
2021/12/13 04:35:21;;;;;;;;;;;;;;;;;;5033121;28;20458;-82
2021/12/13 04:37:47;;;;;;;;;;;;;;;;;;5032003;28;19932;-82
2021/12/13 04:40:14;;;;;;;;;;;;;;;;;;5033813;28;19937;-82
2021/12/13 04:42:40;;;;;;;;;;;;;;;;;;5019421;28;19932;-83
2021/12/13 04:45:14;;;;;;;;;;;;;;;;;;5013603;28;19925;-82
2021/12/13 04:47:48;;;;;;;;;;;;;;;;;;5032593;28;19930;-82
2021/12/13 04:50:16;;;;;;;;;;;;;;;;;;5033665;28;19921;-82
2021/12/13 04:52:41;;;;;;;;;;;;;;;;;;5028395;28;20369;-82
2021/12/13 04:55:10;;;;;;;;;;;;;;;;;;5033114;28;19925;-82
2021/12/13 04:57:36;;;;;;;;;;;;;;;;;;5032557;28;19980;-83
2021/12/13 05:00:04;;;;;;;;;;;;;;;;;;5034042;28;19925;-83
2021/12/13 05:02:29;;;;;;;;;;;;;;;;;;5032781;28;19964;-84
2021/12/13 05:04:59;;;;;;;;;;;;;;;;;;5044398;28;19956;-83
2021/12/13 05:07:28;;;;;;;;;;;;;;;;;;5029713;28;19921;-83
2021/12/13 05:09:53;;;;;;;;;;;;;;;;;;5032044;28;19929;-84
2021/12/13 05:12:21;;;;;;;;;;;;;;;;;;5033123;28;19928;-84
2021/12/13 05:14:51;;;;;;;;;;;;;;;;;;5007574;28;19988;-83
2021/12/13 05:17:18;;;;;;;;;;;;;;;;;;5031746;28;19921;-84
2021/12/13 05:19:46;;;;;;;;;;;;;;;;;;5034610;28;19921;-84
2021/12/13 05:22:11;;;;;;;;;;;;;;;;;;5029774;28;20007;-84
2021/12/13 05:24:50;;;;;;;;;;;;;;;;;;5031215;28;20015;-84
2021/12/13 05:27:18;;;;;;;;;;;;;;;;;;5025015;28;19917;-85
2021/12/13 05:29:48;;;;;;;;;;;;;;;;;;5029427;28;19921;-84
2021/12/13 05:32:14;;;;;;;;;;;;;;;;;;5029649;28;20424;-84
2021/12/13 05:34:44;;;;;;;;;;;;;;;;;;5041539;28;19921;-84
2021/12/13 05:37:09;;;;;;;;;;;;;;;;;;5031910;28;19921;-84
2021/12/13 05:39:35;;;;;;;;;;;;;;;;;;5033333;28;19921;-84
2021/12/13 05:42:02;;;;;;;;;;;;;;;;;;5031012;28;20374;-84
2021/12/13 05:44:32;;;;;;;;;;;;;;;;;;5029590;28;19921;-84
2021/12/13 05:47:00;;;;;;;;;;;;;;;;;;5027630;28;20345;-84
2021/12/13 05:49:33;;;;;;;;;;;;;;;;;;5031427;28;19921;-84
2021/12/13 05:52:25;;;;;;;;;;;;;;;;;;5026641;28;19921;-84
2021/12/13 05:54:52;;;;;;;;;;;;;;;;;;5028170;28;19932;-84
2021/12/13 05:57:23;;;;;;;;;;;;;;;;;;5028642;28;19925;-83
2021/12/13 05:59:49;;;;;;;;;;;;;;;;;;5029966;28;20539;-82
2021/12/13 06:02:17;;;;;;;;;;;;;;;;;;5029509;28;19921;-85
2021/12/13 06:04:55;;;;;;;;;;;;;;;;;;5035524;28;19921;-84
2021/12/13 06:07:22;;;;;;;;;;;;;;;;;;5032916;28;19929;-85
2021/12/13 06:09:55;;;;;;;;;;;;;;;;;;5029104;28;19936;-84
2021/12/13 06:12:26;;;;;;;;;;;;;;;;;;5030981;28;20302;-85
2021/12/13 06:14:52;;;;;;;;;;;;;;;;;;5030310;28;19932;-83
2021/12/13 06:17:18;;;;;;;;;;;;;;;;;;5031840;28;19925;-83
2021/12/13 06:20:13;;;;;;;;;;;;;;;;;;5029193;28;19928;-84
2021/12/13 06:22:40;;;;;;;;;;;;;;;;;;5015710;28;19936;-84
2021/12/13 06:25:07;;;;;;;;;;;;;;;;;;5030900;28;19916;-84
2021/12/13 06:27:40;;;;;;;;;;;;;;;;;;5022886;28;20343;-84
2021/12/13 06:30:23;;;;;;;;;;;;;;;;;;5028137;28;19983;-84
2021/12/13 06:32:51;;;;;;;;;;;;;;;;;;5030344;28;19932;-84
2021/12/13 06:35:37;;;;;;;;;;;;;;;;;;5022327;28;19963;-84
2021/12/13 06:38:24;;;;;;;;;;;;;;;;;;5024929;28;19951;-84
2021/12/13 06:41:10;;;;;;;;;;;;;;;;;;5033836;28;19987;-84
2021/12/13 06:43:56;;;;;;;;;;;;;;;;;;5037311;28;19921;-84
2021/12/13 06:46:24;;;;;;;;;;;;;;;;;;5034693;28;19921;-84
2021/12/13 06:48:51;;;;;;;;;;;;;;;;;;5033882;28;19921;-84
2021/12/13 06:51:20;;;;;;;;;;;;;;;;;;5023961;28;20004;-85
2021/12/13 06:53:59;;;;;;;;;;;;;;;;;;5035954;28;19964;-84
2021/12/13 06:56:26;;;;;;;;;;;;;;;;;;5033390;28;19929;-84
2021/12/13 06:58:54;;;;;;;;;;;;;;;;;;5035509;28;19917;-85
2021/12/13 07:01:20;;;;;;;;;;;;;;;;;;5031496;28;19975;-84
2021/12/13 07:03:56;;;;;;;;;;;;;;;;;;5033757;28;20281;-84
2021/12/13 07:06:21;;;;;;;;;;;;;;;;;;5035182;28;19975;-83
2021/12/13 07:08:51;;;;;;;;;;;;;;;;;;5034301;28;19924;-83
2021/12/13 07:11:21;;;;;;;;;;;;;;;;;;5033472;28;20020;-83
2021/12/13 07:13:48;;;;;;;;;;;;;;;;;;5021329;28;20246;-82
2021/12/13 07:16:15;;;;;;;;;;;;;;;;;;5052647;28;20312;-83
2021/12/13 07:18:45;;;;;;;;;;;;;;;;;;5039350;28;19940;-81
2021/12/13 07:21:12;;;;;;;;;;;;;;;;;;5034991;28;20255;-83
2021/12/13 07:23:56;;;;;;;;;;;;;;;;;;5034795;28;19917;-81
2021/12/13 07:26:36;;;;;;;;;;;;;;;;;;5035620;28;19967;-82
2021/12/13 07:29:09;;;;;;;;;;;;;;;;;;5030147;28;19921;-81
2021/12/13 07:31:35;;;;;;;;;;;;;;;;;;5036173;28;19921;-82
2021/12/13 07:34:12;;;;;;;;;;;;;;;;;;5035190;28;19944;-82
2021/12/13 07:36:37;;;;;;;;;;;;;;;;;;5018738;28;19921;-81
2021/12/13 07:39:10;;;;;;;;;;;;;;;;;;5034938;28;20400;-82
2021/12/13 07:41:49;;;;;;;;;;;;;;;;;;5027649;28;19964;-82
2021/12/13 07:44:25;;;;;;;;;;;;;;;;;;5032249;28;19971;-82
2021/12/13 07:46:57;;;;;;;;;;;;;;;;;;5034308;28;19921;-82
2021/12/13 07:49:22;;;;;;;;;;;;;;;;;;5017897;28;19936;-82
2021/12/13 07:51:48;;;;;;;;;;;;;;;;;;5016602;28;19921;-82
2021/12/13 07:54:15;;;;;;;;;;;;;;;;;;5016901;28;19924;-82
2021/12/13 07:56:43;;;;;;;;;;;;;;;;;;5037085;28;19933;-82
2021/12/13 07:59:16;;;;;;;;;;;;;;;;;;5035433;28;20011;-80
2021/12/13 08:01:44;;;;;;;;;;;;;;;;;;5031933;28;19921;-81
2021/12/13 08:04:11;;;;;;;;;;;;;;;;;;5035150;28;19971;-82
2021/12/13 08:06:41;;;;;;;;;;;;;;;;;;5053586;28;19932;-82
2021/12/13 08:09:08;;;;;;;;;;;;;;;;;;5036106;28;19921;-83
2021/12/13 08:12:06;;;;;;;;;;;;;;;;;;5026348;28;20255;-83
2021/12/13 08:14:33;;;;;;;;;;;;;;;;;;5018978;28;19984;-82
2021/12/13 08:17:20;;;;;;;;;;;;;;;;;;5034070;28;20302;-84
2021/12/13 08:20:15;;;;;;;;;;;;;;;;;;5032624;28;19925;-83
2021/12/13 08:22:47;;;;;;;;;;;;;;;;;;5012732;28;19932;-83
2021/12/13 08:25:20;;;;;;;;;;;;;;;;;;5022396;28;19920;-82
2021/12/13 08:27:50;;;;;;;;;;;;;;;;;;5034714;28;19961;-83
2021/12/13 08:30:20;;;;;;;;;;;;;;;;;;5031072;28;20361;-84
2021/12/13 08:33:22;;;;;;;;;;;;;;;;;;5030060;28;19932;-84
2021/12/13 08:35:56;;;;;;;;;;;;;;;;;;5035218;28;20012;-83
2021/12/13 08:38:28;;;;;;;;;;;;;;;;;;5034027;28;20241;-83
2021/12/13 08:40:53;;;;;;;;;;;;;;;;;;5034732;28;19929;-82
2021/12/13 09:17:06;;;;;;;;;;;;;;;;;;4969050;28;19964;-82
2021/12/13 09:19:41;;;;;;;;;;;;;;;;;;4957206;28;20033;-83
2021/12/13 09:22:10;;;;;;;;;;;;;;;;;;4972935;28;19924;-83
2021/12/13 09:24:57;;;;;;;;;;;;;;;;;;4940387;28;19918;-81
2021/12/13 09:27:24;;;;;;;;;;;;;;;;;;4945685;28;19933;-82
2021/12/13 09:30:19;;;;;;;;;;;;;;;;;;4971178;28;19994;-83
2021/12/13 09:32:56;;;;;;;;;;;;;;;;;;4968978;28;19922;-84
2021/12/13 09:35:43;;;;;;;;;;;;;;;;;;4969127;28;19922;-83
2021/12/13 09:38:17;;;;;;;;;;;;;;;;;;4970030;28;19926;-84
2021/12/13 09:40:44;;;;;;;;;;;;;;;;;;4969966;28;19937;-84
2021/12/13 09:43:12;;;;;;;;;;;;;;;;;;4957886;28;19922;-83
2021/12/13 09:46:00;;;;;;;;;;;;;;;;;;4955734;28;19930;-84
2021/12/13 09:48:30;;;;;;;;;;;;;;;;;;4962080;28;20017;-83
2021/12/13 09:50:57;;;;;;;;;;;;;;;;;;4972327;28;19922;-83
2021/12/13 09:53:42;;;;;;;;;;;;;;;;;;5005060;28;20342;-82
2021/12/13 09:56:22;;;;;;;;;;;;;;;;;;5031258;28;20345;-83
2021/12/13 09:58:52;;;;;;;;;;;;;;;;;;5011286;28;19936;-83
2021/12/13 10:01:28;;;;;;;;;;;;;;;;;;5029670;28;19977;-82
2021/12/13 10:03:56;;;;;;;;;;;;;;;;;;5031629;28;19932;-82
2021/12/13 10:06:44;;;;;;;;;;;;;;;;;;5020381;28;20265;-82
2021/12/13 10:12:30;;;;;;;;;;;;;;;;;;4949615;28;19972;-82
2021/12/13 10:15:02;;;;;;;;;;;;;;;;;;4947678;28;19933;-81
2021/12/13 10:17:28;;;;;;;;;;;;;;;;;;4995842;28;19921;-80
2021/12/13 10:19:55;;;;;;;;;;;;;;;;;;5026805;28;20056;-81
2021/12/13 10:22:22;;;;;;;;;;;;;;;;;;5009062;28;19980;-82
2021/12/13 10:24:51;;;;;;;;;;;;;;;;;;5011063;28;19983;-81
2021/12/13 10:27:23;;;;;;;;;;;;;;;;;;5008826;28;19925;-82
2021/12/13 10:29:53;;;;;;;;;;;;;;;;;;5025206;28;19971;-82
2021/12/13 10:32:31;;;;;;;;;;;;;;;;;;5026096;28;19952;-82
2021/12/13 10:34:59;;;;;;;;;;;;;;;;;;5008521;28;20361;-82
2021/12/13 10:37:47;;;;;;;;;;;;;;;;;;5026233;28;19929;-82
2021/12/13 10:40:26;;;;;;;;;;;;;;;;;;5024916;28;19925;-80
2021/12/13 10:42:55;;;;;;;;;;;;;;;;;;5025798;28;19964;-80
2021/12/13 10:45:29;;;;;;;;;;;;;;;;;;5024017;28;19932;-84
2021/12/13 10:50:49;;;;;;;;;;;;;;;;;;4967654;28;20017;-82
2021/12/13 10:53:18;;;;;;;;;;;;;;;;;;5025296;28;20019;-83
2021/12/13 10:55:46;;;;;;;;;;;;;;;;;;5026685;28;19932;-83
2021/12/13 10:58:18;;;;;;;;;;;;;;;;;;4986918;28;19925;-84
2021/12/13 11:00:48;;;;;;;;;;;;;;;;;;4991787;28;19921;-83
2021/12/13 11:03:15;;;;;;;;;;;;;;;;;;5011342;28;20709;-80
2021/12/13 11:05:41;;;;;;;;;;;;;;;;;;5025643;28;20277;-81
2021/12/13 11:08:07;;;;;;;;;;;;;;;;;;5015912;28;19923;-80
2021/12/13 11:10:35;;;;;;;;;;;;;;;;;;5029043;28;19991;-82
2021/12/13 11:13:00;;;;;;;;;;;;;;;;;;5025062;28;19983;-80
2021/12/13 11:15:27;;;;;;;;;;;;;;;;;;5025162;28;19925;-82
2021/12/13 11:17:54;;;;;;;;;;;;;;;;;;5028207;28;20232;-80
2021/12/13 11:20:27;;;;;;;;;;;;;;;;;;5025908;28;19929;-81
2021/12/13 11:22:52;;;;;;;;;;;;;;;;;;5024433;28;20515;-81
2021/12/13 11:25:39;;;;;;;;;;;;;;;;;;5026532;28;20008;-80
2021/12/13 11:28:32;;;;;;;;;;;;;;;;;;5027499;28;19921;-81
2021/12/13 11:34:04;;;;;;;;;;;;;;;;;;4947288;28;19922;-83
2021/12/13 11:36:35;;;;;;;;;;;;;;;;;;5026138;28;20170;-86
2021/12/13 11:39:23;;;;;;;;;;;;;;;;;;5024567;28;19929;-85
2021/12/13 11:41:56;;;;;;;;;;;;;;;;;;4993542;28;19921;-86
2021/12/13 11:44:40;;;;;;;;;;;;;;;;;;5027200;28;20070;-88
2021/12/13 11:47:33;;;;;;;;;;;;;;;;;;5027774;28;19960;-86
2021/12/13 11:50:21;;;;;;;;;;;;;;;;;;5026832;28;19927;-84
2021/12/13 11:52:59;;;;;;;;;;;;;;;;;;5033181;28;19931;-85
2021/12/13 11:55:43;;;;;;;;;;;;;;;;;;5014481;28;20324;-84
2021/12/13 11:58:11;;;;;;;;;;;;;;;;;;5024530;28;19925;-83
2021/12/13 12:03:54;;;;;;;;;;;;;;;;;;5030679;28;19936;-84
2021/12/13 12:06:38;;;;;;;;;;;;;;;;;;5012664;28;20004;-83
2021/12/13 12:09:17;;;;;;;;;;;;;;;;;;5030474;28;19959;-84
2021/12/13 12:12:13;;;;;;;;;;;;;;;;;;5033111;28;19967;-84
2021/12/13 12:14:43;;;;;;;;;;;;;;;;;;5017228;28;19925;-85
2021/12/13 12:20:26;;;;;;;;;;;;;;;;;;5032792;28;19931;-84
2021/12/13 12:22:53;;;;;;;;;;;;;;;;;;5030316;28;19956;-84
2021/12/13 12:25:22;;;;;;;;;;;;;;;;;;5025272;28;20016;-84
2021/12/13 12:28:25;;;;;;;;;;;;;;;;;;5029313;28;20278;-84
2021/12/13 12:31:01;;;;;;;;;;;;;;;;;;4928292;29;20280;-85
2021/12/13 12:33:27;;;;;;;;;;;;;;;;;;4951490;28;19921;-83
2021/12/13 12:35:53;;;;;;;;;;;;;;;;;;5010242;28;20373;-83
2021/12/13 12:38:27;;;;;;;;;;;;;;;;;;5026358;28;19925;-84
2021/12/13 12:41:31;;;;;;;;;;;;;;;;;;5028142;28;20258;-84
2021/12/13 12:43:59;;;;;;;;;;;;;;;;;;4947577;28;19951;-85
2021/12/13 12:46:37;;;;;;;;;;;;;;;;;;4946229;28;19930;-83
2021/12/13 12:49:02;;;;;;;;;;;;;;;;;;4931616;29;19923;-84
2021/12/13 12:51:31;;;;;;;;;;;;;;;;;;4932323;28;19990;-83
2021/12/13 12:54:16;;;;;;;;;;;;;;;;;;4932875;29;19938;-88
2021/12/13 12:56:52;;;;;;;;;;;;;;;;;;4932962;29;19934;-85
2021/12/13 12:59:23;;;;;;;;;;;;;;;;;;4951453;28;19922;-82
2021/12/13 13:01:59;;;;;;;;;;;;;;;;;;4954619;28;19988;-85
2021/12/13 13:04:30;;;;;;;;;;;;;;;;;;4952947;28;19933;-84
2021/12/13 13:06:58;;;;;;;;;;;;;;;;;;4947432;28;20014;-85
2021/12/13 13:09:33;;;;;;;;;;;;;;;;;;4951063;28;20494;-86
2021/12/13 13:11:58;;;;;;;;;;;;;;;;;;4947078;28;19930;-84
2021/12/13 13:14:28;;;;;;;;;;;;;;;;;;4976942;28;19929;-83
2021/12/13 13:16:55;;;;;;;;;;;;;;;;;;5024105;28;19968;-83
2021/12/13 13:19:32;;;;;;;;;;;;;;;;;;5011327;28;19921;-83
2021/12/13 13:22:05;;;;;;;;;;;;;;;;;;5013834;28;19921;-79
2021/12/13 13:24:30;;;;;;;;;;;;;;;;;;5010156;28;19937;-81
2021/12/13 13:26:58;;;;;;;;;;;;;;;;;;5025387;28;19925;-91
2021/12/13 13:42:43;;;;;;;;;;;;;;;;;;4900278;29;19934;-84
2021/12/13 14:13:20;;;;;;;;;;;;;;;;;;4821428;29;19925;-82
2021/12/13 14:15:47;;;;;;;;;;;;;;;;;;4792480;29;19925;-77
2021/12/13 14:18:19;;;;;;;;;;;;;;;;;;4806294;29;19989;-77
2021/12/13 14:24:03;;;;;;;;;;;;;;;;;;4811073;29;20072;-79
2021/12/13 14:26:34;;;;;;;;;;;;;;;;;;4799414;29;20005;-78
2021/12/13 14:29:01;;;;;;;;;;;;;;;;;;4819032;29;20367;-78
2021/12/13 14:31:41;;;;;;;;;;;;;;;;;;4821812;29;19925;-80
2021/12/13 14:34:09;;;;;;;;;;;;;;;;;;4821900;29;19925;-79
2021/12/13 14:36:50;;;;;;;;;;;;;;;;;;4821810;29;19964;-79
2021/12/13 14:39:26;;;;;;;;;;;;;;;;;;4821704;29;19932;-78
2021/12/13 14:41:51;;;;;;;;;;;;;;;;;;4821771;29;19932;-78
2021/12/13 14:44:18;;;;;;;;;;;;;;;;;;4821170;29;19961;-78
2021/12/13 14:46:46;;;;;;;;;;;;;;;;;;4806466;29;19925;-79
2021/12/13 14:49:18;;;;;;;;;;;;;;;;;;4828922;29;19991;-79
2021/12/13 14:51:47;;;;;;;;;;;;;;;;;;4859394;29;19924;-78
2021/12/13 14:54:14;;;;;;;;;;;;;;;;;;4860658;29;19923;-79
2021/12/13 14:56:39;;;;;;;;;;;;;;;;;;4859928;29;19928;-79
2021/12/13 14:59:05;;;;;;;;;;;;;;;;;;4855257;29;20006;-78
2021/12/13 15:01:35;;;;;;;;;;;;;;;;;;4985794;28;20265;-78
2021/12/13 15:04:05;;;;;;;;;;;;;;;;;;5014257;28;19921;-77
2021/12/13 15:06:32;;;;;;;;;;;;;;;;;;5029753;28;19928;-77
2021/12/13 15:08:59;;;;;;;;;;;;;;;;;;5027414;28;19932;-78
2021/12/13 15:11:32;;;;;;;;;;;;;;;;;;5015925;28;19968;-78
2021/12/13 15:14:01;;;;;;;;;;;;;;;;;;5015356;28;19936;-78
2021/12/13 15:31:48;;;;;;;;;;;;;;;;;;4940590;29;19929;-85
2021/12/13 15:37:56;;;;;;;;;;;;;;;;;;4919558;29;19930;-84
2021/12/13 15:43:07;;;;;;;;;;;;;;;;;;4891288;29;19931;-80
2021/12/13 15:52:00;;;;;;;;;;;;;;;;;;4899024;29;19983;-82
2021/12/13 15:54:45;;;;;;;;;;;;;;;;;;4910779;29;20006;-80
2021/12/13 15:57:20;;;;;;;;;;;;;;;;;;4919843;29;19926;-79
2021/12/13 15:59:52;;;;;;;;;;;;;;;;;;4896939;29;20042;-86
2021/12/13 16:05:23;;;;;;;;;;;;;;;;;;4874273;29;20285;-82
2021/12/13 16:11:02;;;;;;;;;;;;;;;;;;4914799;28;20077;-81
2021/12/13 16:13:56;;;;;;;;;;;;;;;;;;4989955;28;19921;-87
2021/12/13 16:16:34;;;;;;;;;;;;;;;;;;5013638;28;19943;-81
2021/12/13 16:19:14;;;;;;;;;;;;;;;;;;4999195;28;19924;-82
2021/12/13 16:21:48;;;;;;;;;;;;;;;;;;4994148;28;19936;-85
2021/12/13 16:27:54;;;;;;;;;;;;;;;;;;4971506;28;20425;-80
2021/12/13 16:30:24;;;;;;;;;;;;;;;;;;4969708;28;20004;-81
2021/12/13 16:32:49;;;;;;;;;;;;;;;;;;4972292;28;19937;-82
2021/12/13 16:35:15;;;;;;;;;;;;;;;;;;4951972;28;20490;-81
2021/12/13 16:37:41;;;;;;;;;;;;;;;;;;4970928;28;19929;-81
2021/12/13 16:40:15;;;;;;;;;;;;;;;;;;4971970;28;19932;-78
2021/12/13 16:42:41;;;;;;;;;;;;;;;;;;4957027;28;19922;-80
2021/12/13 16:45:07;;;;;;;;;;;;;;;;;;4954680;28;19994;-79
2021/12/13 16:47:40;;;;;;;;;;;;;;;;;;4971335;28;19930;-82
2021/12/13 16:50:06;;;;;;;;;;;;;;;;;;4953538;28;19948;-81
2021/12/13 16:52:31;;;;;;;;;;;;;;;;;;4971596;28;20242;-81
2021/12/13 16:55:02;;;;;;;;;;;;;;;;;;4972862;28;19929;-84
2021/12/13 16:57:28;;;;;;;;;;;;;;;;;;4959038;28;19925;-85
2021/12/13 16:59:54;;;;;;;;;;;;;;;;;;4972225;28;19922;-86
2021/12/13 17:02:19;;;;;;;;;;;;;;;;;;4954063;28;20524;-81
2021/12/13 17:04:49;;;;;;;;;;;;;;;;;;5030229;28;19956;-80
2021/12/13 17:07:20;;;;;;;;;;;;;;;;;;4993321;28;19917;-84
2021/12/13 17:09:54;;;;;;;;;;;;;;;;;;4997875;28;19955;-78
2021/12/13 17:12:19;;;;;;;;;;;;;;;;;;5026364;28;20247;-78
2021/12/13 17:14:58;;;;;;;;;;;;;;;;;;5010252;28;19943;-78
2021/12/13 17:17:28;;;;;;;;;;;;;;;;;;5018036;28;19949;-80
2021/12/13 17:19:58;;;;;;;;;;;;;;;;;;5024088;28;20016;-80
2021/12/13 17:22:24;;;;;;;;;;;;;;;;;;5013528;28;19932;-83
2021/12/13 17:24:54;;;;;;;;;;;;;;;;;;5025095;28;19925;-80
2021/12/13 17:27:27;;;;;;;;;;;;;;;;;;5026302;28;19932;-77
2021/12/13 17:29:59;;;;;;;;;;;;;;;;;;5010827;28;19926;-77
2021/12/13 17:32:41;;;;;;;;;;;;;;;;;;5022903;28;20290;-80
2021/12/13 17:35:07;;;;;;;;;;;;;;;;;;5011137;28;19921;-78
2021/12/13 17:37:37;;;;;;;;;;;;;;;;;;5027488;28;20481;-77
2021/12/13 17:40:06;;;;;;;;;;;;;;;;;;5025030;28;19937;-78
2021/12/13 17:42:39;;;;;;;;;;;;;;;;;;5028848;28;19932;-77
2021/12/13 17:45:26;;;;;;;;;;;;;;;;;;5029504;28;19955;-76
2021/12/13 17:47:52;;;;;;;;;;;;;;;;;;5008244;28;19995;-78
2021/12/13 17:50:20;;;;;;;;;;;;;;;;;;5022699;28;19921;-78
2021/12/13 17:52:51;;;;;;;;;;;;;;;;;;5013048;28;20286;-79
2021/12/13 17:55:16;;;;;;;;;;;;;;;;;;5024259;28;20465;-78
2021/12/13 17:57:43;;;;;;;;;;;;;;;;;;5022488;28;19916;-78
2021/12/13 18:00:29;;;;;;;;;;;;;;;;;;5006839;28;19925;-77
2021/12/13 18:03:14;;;;;;;;;;;;;;;;;;5024624;28;19936;-77
2021/12/13 18:05:42;;;;;;;;;;;;;;;;;;5018249;28;19922;-78
2021/12/13 18:08:10;;;;;;;;;;;;;;;;;;5029408;28;19964;-78
2021/12/13 18:10:36;;;;;;;;;;;;;;;;;;5031066;28;19928;-77
2021/12/13 18:13:04;;;;;;;;;;;;;;;;;;5026522;28;19965;-77
2021/12/13 18:15:30;;;;;;;;;;;;;;;;;;5009321;28;19951;-77
2021/12/13 18:18:02;;;;;;;;;;;;;;;;;;5030135;28;20370;-77
2021/12/13 18:20:30;;;;;;;;;;;;;;;;;;5001658;28;19921;-77
2021/12/13 18:23:01;;;;;;;;;;;;;;;;;;5031069;28;20344;-78
2021/12/13 18:26:02;;;;;;;;;;;;;;;;;;5013397;28;19921;-79
2021/12/13 18:28:33;;;;;;;;;;;;;;;;;;5031210;28;19921;-78
2021/12/13 18:31:01;;;;;;;;;;;;;;;;;;5031198;28;19925;-77
2021/12/13 18:33:28;;;;;;;;;;;;;;;;;;5013129;28;19990;-77
2021/12/13 18:35:59;;;;;;;;;;;;;;;;;;4991647;28;19973;-78
2021/12/13 18:38:32;;;;;;;;;;;;;;;;;;5036064;28;19928;-78
2021/12/13 18:40:59;;;;;;;;;;;;;;;;;;5035585;28;19979;-77
2021/12/13 18:43:33;;;;;;;;;;;;;;;;;;5035292;28;19928;-76
2021/12/13 18:45:58;;;;;;;;;;;;;;;;;;5015982;28;20439;-77
2021/12/13 18:48:25;;;;;;;;;;;;;;;;;;5024700;28;20016;-76
2021/12/13 18:51:04;;;;;;;;;;;;;;;;;;5035545;28;19921;-77
2021/12/13 18:53:33;;;;;;;;;;;;;;;;;;5034106;28;20018;-77
2021/12/13 18:56:06;;;;;;;;;;;;;;;;;;5035757;28;20024;-77
2021/12/13 18:58:36;;;;;;;;;;;;;;;;;;5042422;28;19948;-77
2021/12/13 19:01:09;;;;;;;;;;;;;;;;;;5021273;28;20015;-77
2021/12/13 19:03:35;;;;;;;;;;;;;;;;;;5012698;28;19921;-78
2021/12/13 19:06:01;;;;;;;;;;;;;;;;;;5035227;28;19983;-78
2021/12/13 19:08:36;;;;;;;;;;;;;;;;;;5035644;28;20452;-78
2021/12/13 19:11:02;;;;;;;;;;;;;;;;;;5034777;28;19964;-79
2021/12/13 19:13:37;;;;;;;;;;;;;;;;;;5017031;28;20026;-78
2021/12/13 19:16:23;;;;;;;;;;;;;;;;;;5035871;28;19992;-77
2021/12/13 19:18:54;;;;;;;;;;;;;;;;;;5024593;28;19929;-78
2021/12/13 19:21:19;;;;;;;;;;;;;;;;;;5002242;28;19936;-78
2021/12/13 19:23:53;;;;;;;;;;;;;;;;;;5035534;28;19921;-78
2021/12/13 19:26:31;;;;;;;;;;;;;;;;;;5034312;28;19925;-78
2021/12/13 19:29:10;;;;;;;;;;;;;;;;;;5034890;28;19929;-78
2021/12/13 19:31:43;;;;;;;;;;;;;;;;;;5011472;28;19922;-77
2021/12/13 19:34:14;;;;;;;;;;;;;;;;;;5032270;28;19959;-77